sensor_id;sensor_type;location;lat;lon;timestamp;temperature;humidity
56240;DHT22;42154;51.992;5.896;2023-07-31T00:02:07;16.50;99.90
56240;DHT22;42154;51.992;5.896;2023-07-31T00:04:33;16.50;99.90
56240;DHT22;42154;51.992;5.896;2023-07-31T00:06:58;16.60;99.90
56240;DHT22;42154;51.992;5.896;2023-07-31T00:09:24;16.60;99.90
56240;DHT22;42154;51.992;5.896;2023-07-31T00:11:50;16.60;99.90
56240;DHT22;42154;51.992;5.896;2023-07-31T00:14:15;16.60;99.90
56240;DHT22;42154;51.992;5.896;2023-07-31T00:16:41;16.60;99.90
56240;DHT22;42154;51.992;5.896;2023-07-31T00:19:07;16.60;99.90
56240;DHT22;42154;51.992;5.896;2023-07-31T00:21:33;16.60;99.90
56240;DHT22;42154;51.992;5.896;2023-07-31T00:23:58;16.60;99.90
56240;DHT22;42154;51.992;5.896;2023-07-31T00:26:24;16.60;99.90
56240;DHT22;42154;51.992;5.896;2023-07-31T00:28:50;16.60;99.90
56240;DHT22;42154;51.992;5.896;2023-07-31T00:31:15;16.60;99.90
56240;DHT22;42154;51.992;5.896;2023-07-31T00:33:41;16.60;99.90
56240;DHT22;42154;51.992;5.896;2023-07-31T00:36:07;16.60;99.90
56240;DHT22;42154;51.992;5.896;2023-07-31T00:38:32;16.60;99.90
56240;DHT22;42154;51.992;5.896;2023-07-31T00:40:58;16.60;99.90
56240;DHT22;42154;51.992;5.896;2023-07-31T00:43:25;16.60;99.90
56240;DHT22;42154;51.992;5.896;2023-07-31T00:45:51;16.60;99.90
56240;DHT22;42154;51.992;5.896;2023-07-31T00:48:17;16.70;99.90
56240;DHT22;42154;51.992;5.896;2023-07-31T00:50:42;16.70;99.90
56240;DHT22;42154;51.992;5.896;2023-07-31T00:53:08;16.70;99.90
56240;DHT22;42154;51.992;5.896;2023-07-31T00:55:34;16.70;99.90
56240;DHT22;42154;51.992;5.896;2023-07-31T00:58:00;16.70;99.90
56240;DHT22;42154;51.992;5.896;2023-07-31T01:00:26;16.80;99.90
56240;DHT22;42154;51.992;5.896;2023-07-31T01:02:52;16.80;99.90
56240;DHT22;42154;51.992;5.896;2023-07-31T01:05:25;16.80;99.90
56240;DHT22;42154;51.992;5.896;2023-07-31T01:10:57;16.90;99.90
56240;DHT22;42154;51.992;5.896;2023-07-31T01:13:25;16.90;99.90
56240;DHT22;42154;51.992;5.896;2023-07-31T01:15:51;16.90;99.90
56240;DHT22;42154;51.992;5.896;2023-07-31T01:18:16;17.00;99.90
56240;DHT22;42154;51.992;5.896;2023-07-31T01:20:42;17.00;99.90
56240;DHT22;42154;51.992;5.896;2023-07-31T01:23:33;17.00;99.90
56240;DHT22;42154;51.992;5.896;2023-07-31T01:28:44;17.10;99.90
56240;DHT22;42154;51.992;5.896;2023-07-31T01:31:15;17.10;99.90
56240;DHT22;42154;51.992;5.896;2023-07-31T01:33:41;17.10;99.90
56240;DHT22;42154;51.992;5.896;2023-07-31T01:36:08;17.10;99.90
56240;DHT22;42154;51.992;5.896;2023-07-31T01:38:34;17.20;99.90
56240;DHT22;42154;51.992;5.896;2023-07-31T01:41:01;17.20;99.90
56240;DHT22;42154;51.992;5.896;2023-07-31T01:43:27;17.20;99.90
56240;DHT22;42154;51.992;5.896;2023-07-31T01:45:53;17.20;99.90
56240;DHT22;42154;51.992;5.896;2023-07-31T01:48:18;17.20;99.90
56240;DHT22;42154;51.992;5.896;2023-07-31T01:50:45;17.20;99.90
56240;DHT22;42154;51.992;5.896;2023-07-31T01:53:10;17.20;99.90
56240;DHT22;42154;51.992;5.896;2023-07-31T01:55:37;17.20;99.90
56240;DHT22;42154;51.992;5.896;2023-07-31T01:58:03;17.30;99.90
56240;DHT22;42154;51.992;5.896;2023-07-31T02:00:29;17.20;99.90
56240;DHT22;42154;51.992;5.896;2023-07-31T02:02:55;17.20;99.90
56240;DHT22;42154;51.992;5.896;2023-07-31T02:05:20;17.20;99.90
56240;DHT22;42154;51.992;5.896;2023-07-31T02:07:46;17.20;99.90
56240;DHT22;42154;51.992;5.896;2023-07-31T02:10:12;17.20;99.90
56240;DHT22;42154;51.992;5.896;2023-07-31T02:12:38;17.20;99.90
56240;DHT22;42154;51.992;5.896;2023-07-31T02:15:04;17.20;99.90
56240;DHT22;42154;51.992;5.896;2023-07-31T02:17:29;17.20;99.90
56240;DHT22;42154;51.992;5.896;2023-07-31T02:19:55;17.20;99.90
56240;DHT22;42154;51.992;5.896;2023-07-31T02:22:21;17.20;99.90
56240;DHT22;42154;51.992;5.896;2023-07-31T02:24:47;17.20;99.90
56240;DHT22;42154;51.992;5.896;2023-07-31T02:27:12;17.20;99.90
56240;DHT22;42154;51.992;5.896;2023-07-31T02:29:38;17.20;99.90
56240;DHT22;42154;51.992;5.896;2023-07-31T02:32:04;17.20;99.90
56240;DHT22;42154;51.992;5.896;2023-07-31T02:34:30;17.10;99.90
56240;DHT22;42154;51.992;5.896;2023-07-31T02:36:56;17.10;99.90
56240;DHT22;42154;51.992;5.896;2023-07-31T02:39:22;17.10;99.90
56240;DHT22;42154;51.992;5.896;2023-07-31T02:41:47;17.10;99.90
56240;DHT22;42154;51.992;5.896;2023-07-31T02:44:13;17.10;99.90
56240;DHT22;42154;51.992;5.896;2023-07-31T02:46:40;17.10;99.90
56240;DHT22;42154;51.992;5.896;2023-07-31T02:49:05;17.10;99.90
56240;DHT22;42154;51.992;5.896;2023-07-31T02:51:31;17.10;99.90
56240;DHT22;42154;51.992;5.896;2023-07-31T02:53:57;17.10;99.90
56240;DHT22;42154;51.992;5.896;2023-07-31T02:56:23;17.10;99.90
56240;DHT22;42154;51.992;5.896;2023-07-31T02:58:48;17.10;99.90
56240;DHT22;42154;51.992;5.896;2023-07-31T03:01:14;17.10;99.90
56240;DHT22;42154;51.992;5.896;2023-07-31T03:03:41;17.20;99.90
56240;DHT22;42154;51.992;5.896;2023-07-31T03:06:07;17.10;99.90
56240;DHT22;42154;51.992;5.896;2023-07-31T03:08:32;17.20;99.90
56240;DHT22;42154;51.992;5.896;2023-07-31T03:10:58;17.20;99.90
56240;DHT22;42154;51.992;5.896;2023-07-31T03:13:24;17.10;99.90
56240;DHT22;42154;51.992;5.896;2023-07-31T03:15:50;17.20;99.90
56240;DHT22;42154;51.992;5.896;2023-07-31T03:18:16;17.20;99.90
56240;DHT22;42154;51.992;5.896;2023-07-31T03:20:43;17.20;99.90
56240;DHT22;42154;51.992;5.896;2023-07-31T03:23:09;17.20;99.90
56240;DHT22;42154;51.992;5.896;2023-07-31T03:25:35;17.20;99.90
56240;DHT22;42154;51.992;5.896;2023-07-31T03:28:01;17.20;99.90
56240;DHT22;42154;51.992;5.896;2023-07-31T03:30:26;17.20;99.90
56240;DHT22;42154;51.992;5.896;2023-07-31T03:32:52;17.10;99.90
56240;DHT22;42154;51.992;5.896;2023-07-31T03:35:18;17.20;99.90
56240;DHT22;42154;51.992;5.896;2023-07-31T03:37:44;17.10;99.90
56240;DHT22;42154;51.992;5.896;2023-07-31T03:40:10;17.10;99.90
56240;DHT22;42154;51.992;5.896;2023-07-31T03:42:36;17.10;99.90
56240;DHT22;42154;51.992;5.896;2023-07-31T03:45:01;17.10;99.90
56240;DHT22;42154;51.992;5.896;2023-07-31T03:47:28;17.10;99.90
56240;DHT22;42154;51.992;5.896;2023-07-31T03:49:54;17.10;99.90
56240;DHT22;42154;51.992;5.896;2023-07-31T03:52:21;17.10;99.90
56240;DHT22;42154;51.992;5.896;2023-07-31T03:54:46;17.10;99.90
56240;DHT22;42154;51.992;5.896;2023-07-31T03:57:12;17.10;99.90
56240;DHT22;42154;51.992;5.896;2023-07-31T03:59:38;17.10;99.90
56240;DHT22;42154;51.992;5.896;2023-07-31T04:02:04;17.10;99.90
56240;DHT22;42154;51.992;5.896;2023-07-31T04:04:30;17.10;99.90
56240;DHT22;42154;51.992;5.896;2023-07-31T04:06:56;17.10;99.90
56240;DHT22;42154;51.992;5.896;2023-07-31T04:09:21;17.10;99.90
56240;DHT22;42154;51.992;5.896;2023-07-31T04:11:47;17.10;99.90
56240;DHT22;42154;51.992;5.896;2023-07-31T04:14:13;17.10;99.90
56240;DHT22;42154;51.992;5.896;2023-07-31T04:16:39;17.10;99.90
56240;DHT22;42154;51.992;5.896;2023-07-31T04:19:04;17.00;99.90
56240;DHT22;42154;51.992;5.896;2023-07-31T04:21:30;17.10;99.90
56240;DHT22;42154;51.992;5.896;2023-07-31T04:23:56;17.10;99.90
56240;DHT22;42154;51.992;5.896;2023-07-31T04:26:22;17.10;99.90
56240;DHT22;42154;51.992;5.896;2023-07-31T04:28:48;17.10;99.90
56240;DHT22;42154;51.992;5.896;2023-07-31T04:31:13;17.10;99.90
56240;DHT22;42154;51.992;5.896;2023-07-31T04:33:39;17.10;99.90
56240;DHT22;42154;51.992;5.896;2023-07-31T04:36:05;17.10;99.90
56240;DHT22;42154;51.992;5.896;2023-07-31T04:38:31;17.10;99.90
56240;DHT22;42154;51.992;5.896;2023-07-31T04:40:56;17.10;99.90
56240;DHT22;42154;51.992;5.896;2023-07-31T04:43:22;17.10;99.90
56240;DHT22;42154;51.992;5.896;2023-07-31T04:45:48;17.20;99.90
56240;DHT22;42154;51.992;5.896;2023-07-31T04:48:15;17.20;99.90
56240;DHT22;42154;51.992;5.896;2023-07-31T04:50:41;17.20;99.90
56240;DHT22;42154;51.992;5.896;2023-07-31T04:53:07;17.20;99.90
56240;DHT22;42154;51.992;5.896;2023-07-31T04:55:32;17.20;99.90
56240;DHT22;42154;51.992;5.896;2023-07-31T04:57:59;17.20;99.90
56240;DHT22;42154;51.992;5.896;2023-07-31T05:00:25;17.20;99.90
56240;DHT22;42154;51.992;5.896;2023-07-31T05:02:50;17.20;99.90
56240;DHT22;42154;51.992;5.896;2023-07-31T05:05:16;17.20;99.90
56240;DHT22;42154;51.992;5.896;2023-07-31T05:07:42;17.20;99.90
56240;DHT22;42154;51.992;5.896;2023-07-31T05:10:09;17.20;99.90
56240;DHT22;42154;51.992;5.896;2023-07-31T05:12:34;17.20;99.90
56240;DHT22;42154;51.992;5.896;2023-07-31T05:15:00;17.20;99.90
56240;DHT22;42154;51.992;5.896;2023-07-31T05:17:26;17.20;99.90
56240;DHT22;42154;51.992;5.896;2023-07-31T05:19:51;17.20;99.90
56240;DHT22;42154;51.992;5.896;2023-07-31T05:22:17;17.20;99.90
56240;DHT22;42154;51.992;5.896;2023-07-31T05:24:43;17.20;99.90
56240;DHT22;42154;51.992;5.896;2023-07-31T05:27:08;17.20;99.90
56240;DHT22;42154;51.992;5.896;2023-07-31T05:29:35;17.20;99.90
56240;DHT22;42154;51.992;5.896;2023-07-31T05:32:01;17.20;99.90
56240;DHT22;42154;51.992;5.896;2023-07-31T05:34:27;17.20;99.90
56240;DHT22;42154;51.992;5.896;2023-07-31T05:36:52;17.10;99.90
56240;DHT22;42154;51.992;5.896;2023-07-31T05:39:18;17.10;99.90
56240;DHT22;42154;51.992;5.896;2023-07-31T05:41:45;17.10;99.90
56240;DHT22;42154;51.992;5.896;2023-07-31T05:44:11;17.10;99.90
56240;DHT22;42154;51.992;5.896;2023-07-31T05:46:36;17.00;99.90
56240;DHT22;42154;51.992;5.896;2023-07-31T05:49:02;17.00;99.90
56240;DHT22;42154;51.992;5.896;2023-07-31T05:51:28;17.00;99.90
56240;DHT22;42154;51.992;5.896;2023-07-31T05:53:54;17.00;99.90
56240;DHT22;42154;51.992;5.896;2023-07-31T05:56:20;17.00;99.90
56240;DHT22;42154;51.992;5.896;2023-07-31T05:58:45;17.00;99.90
56240;DHT22;42154;51.992;5.896;2023-07-31T06:01:11;17.00;99.90
56240;DHT22;42154;51.992;5.896;2023-07-31T06:03:37;17.00;99.90
56240;DHT22;42154;51.992;5.896;2023-07-31T06:06:02;17.00;99.90
56240;DHT22;42154;51.992;5.896;2023-07-31T06:08:28;17.00;99.90
56240;DHT22;42154;51.992;5.896;2023-07-31T06:10:54;17.00;99.90
56240;DHT22;42154;51.992;5.896;2023-07-31T06:13:20;17.00;99.90
56240;DHT22;42154;51.992;5.896;2023-07-31T06:15:45;17.00;99.90
56240;DHT22;42154;51.992;5.896;2023-07-31T06:18:11;17.00;99.90
56240;DHT22;42154;51.992;5.896;2023-07-31T06:20:37;17.00;99.90
56240;DHT22;42154;51.992;5.896;2023-07-31T06:23:06;17.10;99.90
56240;DHT22;42154;51.992;5.896;2023-07-31T06:25:31;17.10;99.90
56240;DHT22;42154;51.992;5.896;2023-07-31T06:27:57;17.10;99.90
56240;DHT22;42154;51.992;5.896;2023-07-31T06:30:23;17.10;99.90
56240;DHT22;42154;51.992;5.896;2023-07-31T06:32:48;17.10;99.90
56240;DHT22;42154;51.992;5.896;2023-07-31T06:35:14;17.10;99.90
56240;DHT22;42154;51.992;5.896;2023-07-31T06:37:40;17.10;99.90
56240;DHT22;42154;51.992;5.896;2023-07-31T06:40:09;17.10;99.90
56240;DHT22;42154;51.992;5.896;2023-07-31T06:42:35;17.20;99.90
56240;DHT22;42154;51.992;5.896;2023-07-31T06:45:02;17.20;99.90
56240;DHT22;42154;51.992;5.896;2023-07-31T06:47:27;17.20;99.90
56240;DHT22;42154;51.992;5.896;2023-07-31T06:49:53;17.30;99.90
56240;DHT22;42154;51.992;5.896;2023-07-31T06:52:19;17.30;99.90
56240;DHT22;42154;51.992;5.896;2023-07-31T06:55:01;17.30;99.90
56240;DHT22;42154;51.992;5.896;2023-07-31T06:57:28;17.30;99.90
56240;DHT22;42154;51.992;5.896;2023-07-31T06:59:53;17.30;99.90
56240;DHT22;42154;51.992;5.896;2023-07-31T07:02:19;17.30;99.90
56240;DHT22;42154;51.992;5.896;2023-07-31T07:04:45;17.30;99.90
56240;DHT22;42154;51.992;5.896;2023-07-31T07:07:11;17.30;99.90
56240;DHT22;42154;51.992;5.896;2023-07-31T07:09:37;17.40;99.90
56240;DHT22;42154;51.992;5.896;2023-07-31T07:12:03;17.40;99.90
56240;DHT22;42154;51.992;5.896;2023-07-31T07:14:29;17.40;99.90
56240;DHT22;42154;51.992;5.896;2023-07-31T07:16:55;17.40;99.90
56240;DHT22;42154;51.992;5.896;2023-07-31T07:19:20;17.40;99.90
56240;DHT22;42154;51.992;5.896;2023-07-31T07:21:46;17.50;99.90
56240;DHT22;42154;51.992;5.896;2023-07-31T07:24:12;17.50;99.90
56240;DHT22;42154;51.992;5.896;2023-07-31T07:26:37;17.60;99.90
56240;DHT22;42154;51.992;5.896;2023-07-31T07:29:03;17.60;99.90
56240;DHT22;42154;51.992;5.896;2023-07-31T07:31:29;17.70;99.90
56240;DHT22;42154;51.992;5.896;2023-07-31T07:33:55;17.70;99.90
56240;DHT22;42154;51.992;5.896;2023-07-31T07:36:21;17.70;99.90
56240;DHT22;42154;51.992;5.896;2023-07-31T07:38:46;17.70;99.90
56240;DHT22;42154;51.992;5.896;2023-07-31T07:41:12;17.70;99.90
56240;DHT22;42154;51.992;5.896;2023-07-31T07:43:38;17.70;99.90
56240;DHT22;42154;51.992;5.896;2023-07-31T07:46:03;17.70;99.90
56240;DHT22;42154;51.992;5.896;2023-07-31T07:48:29;17.60;99.90
56240;DHT22;42154;51.992;5.896;2023-07-31T07:50:55;17.60;99.90
56240;DHT22;42154;51.992;5.896;2023-07-31T07:53:20;17.60;99.90
56240;DHT22;42154;51.992;5.896;2023-07-31T07:55:46;17.60;99.90
56240;DHT22;42154;51.992;5.896;2023-07-31T07:58:12;17.60;99.90
56240;DHT22;42154;51.992;5.896;2023-07-31T08:00:38;17.60;99.90
56240;DHT22;42154;51.992;5.896;2023-07-31T08:03:03;17.70;99.90
56240;DHT22;42154;51.992;5.896;2023-07-31T08:05:29;17.70;99.90
56240;DHT22;42154;51.992;5.896;2023-07-31T08:07:55;17.70;99.90
56240;DHT22;42154;51.992;5.896;2023-07-31T08:10:21;17.70;99.90
56240;DHT22;42154;51.992;5.896;2023-07-31T08:12:47;17.70;99.90
56240;DHT22;42154;51.992;5.896;2023-07-31T08:15:12;17.80;99.90
56240;DHT22;42154;51.992;5.896;2023-07-31T08:17:38;17.80;99.90
56240;DHT22;42154;51.992;5.896;2023-07-31T08:20:04;17.80;99.90
56240;DHT22;42154;51.992;5.896;2023-07-31T08:22:31;17.80;99.90
56240;DHT22;42154;51.992;5.896;2023-07-31T08:24:57;17.80;99.90
56240;DHT22;42154;51.992;5.896;2023-07-31T08:27:22;17.90;99.90
56240;DHT22;42154;51.992;5.896;2023-07-31T08:29:48;17.90;99.90
56240;DHT22;42154;51.992;5.896;2023-07-31T08:32:14;18.00;99.90
56240;DHT22;42154;51.992;5.896;2023-07-31T08:34:39;18.00;99.90
56240;DHT22;42154;51.992;5.896;2023-07-31T08:37:05;18.00;99.90
56240;DHT22;42154;51.992;5.896;2023-07-31T08:39:31;18.00;99.90
56240;DHT22;42154;51.992;5.896;2023-07-31T08:42:00;18.00;99.90
56240;DHT22;42154;51.992;5.896;2023-07-31T08:44:26;18.10;99.90
56240;DHT22;42154;51.992;5.896;2023-07-31T08:46:52;18.10;99.90
56240;DHT22;42154;51.992;5.896;2023-07-31T08:49:18;18.10;99.90
56240;DHT22;42154;51.992;5.896;2023-07-31T08:51:46;18.20;99.90
56240;DHT22;42154;51.992;5.896;2023-07-31T08:54:14;18.20;99.90
56240;DHT22;42154;51.992;5.896;2023-07-31T08:56:40;18.20;99.90
56240;DHT22;42154;51.992;5.896;2023-07-31T08:59:06;18.20;99.90
56240;DHT22;42154;51.992;5.896;2023-07-31T09:01:37;18.20;99.90
56240;DHT22;42154;51.992;5.896;2023-07-31T09:04:06;18.30;99.90
56240;DHT22;42154;51.992;5.896;2023-07-31T09:06:33;18.30;99.90
56240;DHT22;42154;51.992;5.896;2023-07-31T09:08:59;18.30;99.90
56240;DHT22;42154;51.992;5.896;2023-07-31T09:11:25;18.40;99.90
56240;DHT22;42154;51.992;5.896;2023-07-31T09:13:52;18.40;99.90
56240;DHT22;42154;51.992;5.896;2023-07-31T09:16:18;18.40;99.90
56240;DHT22;42154;51.992;5.896;2023-07-31T09:18:54;18.40;99.90
56240;DHT22;42154;51.992;5.896;2023-07-31T09:21:24;18.40;99.90
56240;DHT22;42154;51.992;5.896;2023-07-31T09:23:51;18.30;99.90
56240;DHT22;42154;51.992;5.896;2023-07-31T09:26:33;18.30;99.90
56240;DHT22;42154;51.992;5.896;2023-07-31T09:29:01;18.30;99.90
56240;DHT22;42154;51.992;5.896;2023-07-31T09:31:38;18.30;99.90
56240;DHT22;42154;51.992;5.896;2023-07-31T09:34:04;18.30;99.90
56240;DHT22;42154;51.992;5.896;2023-07-31T09:36:30;18.20;99.90
56240;DHT22;42154;51.992;5.896;2023-07-31T09:39:02;18.20;99.90
56240;DHT22;42154;51.992;5.896;2023-07-31T09:41:30;18.30;99.90
56240;DHT22;42154;51.992;5.896;2023-07-31T09:43:55;18.20;99.90
56240;DHT22;42154;51.992;5.896;2023-07-31T09:46:21;18.20;99.90
56240;DHT22;42154;51.992;5.896;2023-07-31T09:48:47;18.20;99.90
56240;DHT22;42154;51.992;5.896;2023-07-31T09:51:13;18.30;99.90
56240;DHT22;42154;51.992;5.896;2023-07-31T09:53:39;18.30;99.90
56240;DHT22;42154;51.992;5.896;2023-07-31T09:56:05;18.30;99.90
56240;DHT22;42154;51.992;5.896;2023-07-31T09:58:34;18.30;99.90
56240;DHT22;42154;51.992;5.896;2023-07-31T10:01:02;18.40;99.90
56240;DHT22;42154;51.992;5.896;2023-07-31T10:03:29;18.40;99.90
56240;DHT22;42154;51.992;5.896;2023-07-31T10:05:57;18.40;99.90
56240;DHT22;42154;51.992;5.896;2023-07-31T10:08:30;18.40;99.90
56240;DHT22;42154;51.992;5.896;2023-07-31T10:10:59;18.40;99.90
56240;DHT22;42154;51.992;5.896;2023-07-31T10:13:27;18.40;99.90
56240;DHT22;42154;51.992;5.896;2023-07-31T10:15:54;18.50;99.90
56240;DHT22;42154;51.992;5.896;2023-07-31T10:18:20;18.50;99.90
56240;DHT22;42154;51.992;5.896;2023-07-31T10:20:47;18.50;99.90
56240;DHT22;42154;51.992;5.896;2023-07-31T10:23:13;18.50;99.90
56240;DHT22;42154;51.992;5.896;2023-07-31T10:25:40;18.60;99.90
56240;DHT22;42154;51.992;5.896;2023-07-31T10:28:06;18.60;99.90
56240;DHT22;42154;51.992;5.896;2023-07-31T10:30:33;18.60;99.90
56240;DHT22;42154;51.992;5.896;2023-07-31T10:33:00;18.70;99.90
56240;DHT22;42154;51.992;5.896;2023-07-31T10:35:28;18.70;99.90
56240;DHT22;42154;51.992;5.896;2023-07-31T10:37:53;18.70;99.90
56240;DHT22;42154;51.992;5.896;2023-07-31T10:40:24;18.70;99.90
56240;DHT22;42154;51.992;5.896;2023-07-31T10:42:51;18.80;99.90
56240;DHT22;42154;51.992;5.896;2023-07-31T10:45:44;18.80;99.90
56240;DHT22;42154;51.992;5.896;2023-07-31T10:48:15;18.80;99.90
56240;DHT22;42154;51.992;5.896;2023-07-31T10:50:49;18.80;99.90
56240;DHT22;42154;51.992;5.896;2023-07-31T10:53:25;18.80;99.90
56240;DHT22;42154;51.992;5.896;2023-07-31T10:55:51;18.90;99.90
56240;DHT22;42154;51.992;5.896;2023-07-31T10:58:19;19.00;99.90
56240;DHT22;42154;51.992;5.896;2023-07-31T11:00:45;19.00;99.90
56240;DHT22;42154;51.992;5.896;2023-07-31T11:03:16;19.00;99.90
56240;DHT22;42154;51.992;5.896;2023-07-31T11:08:35;19.10;99.90
56240;DHT22;42154;51.992;5.896;2023-07-31T11:13:42;19.10;99.90
56240;DHT22;42154;51.992;5.896;2023-07-31T11:16:09;19.10;99.90
56240;DHT22;42154;51.992;5.896;2023-07-31T11:18:35;19.20;99.90
56240;DHT22;42154;51.992;5.896;2023-07-31T11:21:03;19.20;99.90
56240;DHT22;42154;51.992;5.896;2023-07-31T11:23:30;19.20;99.90
56240;DHT22;42154;51.992;5.896;2023-07-31T11:25:59;19.20;99.90
56240;DHT22;42154;51.992;5.896;2023-07-31T11:28:25;19.30;99.90
56240;DHT22;42154;51.992;5.896;2023-07-31T11:30:51;19.30;99.90
56240;DHT22;42154;51.992;5.896;2023-07-31T11:33:17;19.20;99.90
56240;DHT22;42154;51.992;5.896;2023-07-31T11:35:47;19.20;99.90
56240;DHT22;42154;51.992;5.896;2023-07-31T11:38:33;19.20;99.90
56240;DHT22;42154;51.992;5.896;2023-07-31T11:41:01;19.20;99.90
56240;DHT22;42154;51.992;5.896;2023-07-31T11:43:33;19.20;99.90
56240;DHT22;42154;51.992;5.896;2023-07-31T11:46:02;19.20;99.90
56240;DHT22;42154;51.992;5.896;2023-07-31T11:48:33;19.20;99.90
56240;DHT22;42154;51.992;5.896;2023-07-31T11:51:02;19.20;99.90
56240;DHT22;42154;51.992;5.896;2023-07-31T11:53:35;19.30;99.90
56240;DHT22;42154;51.992;5.896;2023-07-31T11:56:03;19.30;99.90
56240;DHT22;42154;51.992;5.896;2023-07-31T11:58:33;19.30;99.90
56240;DHT22;42154;51.992;5.896;2023-07-31T12:01:00;19.30;99.90
56240;DHT22;42154;51.992;5.896;2023-07-31T12:03:26;19.30;99.90
56240;DHT22;42154;51.992;5.896;2023-07-31T12:05:53;19.40;99.90
56240;DHT22;42154;51.992;5.896;2023-07-31T12:08:21;19.40;99.90
56240;DHT22;42154;51.992;5.896;2023-07-31T12:10:50;19.40;99.90
56240;DHT22;42154;51.992;5.896;2023-07-31T12:13:25;19.40;99.90
56240;DHT22;42154;51.992;5.896;2023-07-31T12:15:56;19.50;99.90
56240;DHT22;42154;51.992;5.896;2023-07-31T12:18:24;19.50;99.90
56240;DHT22;42154;51.992;5.896;2023-07-31T12:20:56;19.50;99.90
56240;DHT22;42154;51.992;5.896;2023-07-31T12:23:29;19.50;99.90
56240;DHT22;42154;51.992;5.896;2023-07-31T12:26:09;19.50;99.90
56240;DHT22;42154;51.992;5.896;2023-07-31T12:28:41;19.50;99.90
56240;DHT22;42154;51.992;5.896;2023-07-31T12:31:09;19.50;99.90
56240;DHT22;42154;51.992;5.896;2023-07-31T12:33:36;19.50;99.90
56240;DHT22;42154;51.992;5.896;2023-07-31T12:36:05;19.50;99.90
56240;DHT22;42154;51.992;5.896;2023-07-31T12:38:32;19.50;99.90
56240;DHT22;42154;51.992;5.896;2023-07-31T12:40:58;19.40;99.90
56240;DHT22;42154;51.992;5.896;2023-07-31T12:43:24;19.50;99.90
56240;DHT22;42154;51.992;5.896;2023-07-31T12:45:49;19.40;99.90
56240;DHT22;42154;51.992;5.896;2023-07-31T12:48:15;19.40;99.90
56240;DHT22;42154;51.992;5.896;2023-07-31T12:50:41;19.40;99.90
56240;DHT22;42154;51.992;5.896;2023-07-31T12:53:07;19.40;99.90
56240;DHT22;42154;51.992;5.896;2023-07-31T12:55:33;19.30;99.90
56240;DHT22;42154;51.992;5.896;2023-07-31T12:58:00;19.30;99.90
56240;DHT22;42154;51.992;5.896;2023-07-31T13:00:26;19.30;99.90
56240;DHT22;42154;51.992;5.896;2023-07-31T13:02:52;19.30;99.90
56240;DHT22;42154;51.992;5.896;2023-07-31T13:05:18;19.40;99.90
56240;DHT22;42154;51.992;5.896;2023-07-31T13:07:46;19.40;99.90
56240;DHT22;42154;51.992;5.896;2023-07-31T13:10:12;19.40;99.90
56240;DHT22;42154;51.992;5.896;2023-07-31T13:12:38;19.40;99.90
56240;DHT22;42154;51.992;5.896;2023-07-31T13:15:05;19.50;99.90
56240;DHT22;42154;51.992;5.896;2023-07-31T13:17:31;19.50;99.90
56240;DHT22;42154;51.992;5.896;2023-07-31T13:19:58;19.60;99.90
56240;DHT22;42154;51.992;5.896;2023-07-31T13:22:25;19.70;99.90
56240;DHT22;42154;51.992;5.896;2023-07-31T13:24:51;19.60;99.90
56240;DHT22;42154;51.992;5.896;2023-07-31T13:27:17;19.70;99.90
56240;DHT22;42154;51.992;5.896;2023-07-31T13:29:54;19.60;99.90
56240;DHT22;42154;51.992;5.896;2023-07-31T13:32:20;19.70;99.90
56240;DHT22;42154;51.992;5.896;2023-07-31T13:34:47;19.70;99.90
56240;DHT22;42154;51.992;5.896;2023-07-31T13:37:13;19.80;99.90
56240;DHT22;42154;51.992;5.896;2023-07-31T13:39:39;19.80;99.90
56240;DHT22;42154;51.992;5.896;2023-07-31T13:42:06;19.80;99.90
56240;DHT22;42154;51.992;5.896;2023-07-31T13:44:36;19.80;99.90
56240;DHT22;42154;51.992;5.896;2023-07-31T13:47:02;19.80;99.90
56240;DHT22;42154;51.992;5.896;2023-07-31T13:49:29;19.90;99.90
56240;DHT22;42154;51.992;5.896;2023-07-31T13:51:54;19.80;99.90
56240;DHT22;42154;51.992;5.896;2023-07-31T13:54:21;19.80;99.90
56240;DHT22;42154;51.992;5.896;2023-07-31T13:56:47;19.80;99.90
56240;DHT22;42154;51.992;5.896;2023-07-31T13:59:13;19.80;99.90
56240;DHT22;42154;51.992;5.896;2023-07-31T14:01:40;19.80;99.90
56240;DHT22;42154;51.992;5.896;2023-07-31T14:04:06;19.80;99.90
56240;DHT22;42154;51.992;5.896;2023-07-31T14:06:32;19.80;99.90
56240;DHT22;42154;51.992;5.896;2023-07-31T14:08:57;19.80;99.90
56240;DHT22;42154;51.992;5.896;2023-07-31T14:11:23;19.70;99.90
56240;DHT22;42154;51.992;5.896;2023-07-31T14:13:50;19.70;99.90
56240;DHT22;42154;51.992;5.896;2023-07-31T14:16:16;19.70;99.90
56240;DHT22;42154;51.992;5.896;2023-07-31T14:18:43;19.60;99.90
56240;DHT22;42154;51.992;5.896;2023-07-31T14:21:09;19.60;99.90
56240;DHT22;42154;51.992;5.896;2023-07-31T14:23:34;19.60;99.90
56240;DHT22;42154;51.992;5.896;2023-07-31T14:26:00;19.50;99.90
56240;DHT22;42154;51.992;5.896;2023-07-31T14:28:26;19.50;99.90
56240;DHT22;42154;51.992;5.896;2023-07-31T14:30:52;19.50;99.90
56240;DHT22;42154;51.992;5.896;2023-07-31T14:33:18;19.50;99.90
56240;DHT22;42154;51.992;5.896;2023-07-31T14:35:43;19.50;99.90
56240;DHT22;42154;51.992;5.896;2023-07-31T14:38:09;19.60;99.90
56240;DHT22;42154;51.992;5.896;2023-07-31T14:40:35;19.50;99.90
56240;DHT22;42154;51.992;5.896;2023-07-31T14:43:02;19.50;99.90
56240;DHT22;42154;51.992;5.896;2023-07-31T14:45:27;19.50;99.90
56240;DHT22;42154;51.992;5.896;2023-07-31T14:47:53;19.50;99.90
56240;DHT22;42154;51.992;5.896;2023-07-31T14:50:20;19.50;99.90
56240;DHT22;42154;51.992;5.896;2023-07-31T14:52:46;19.50;99.90
56240;DHT22;42154;51.992;5.896;2023-07-31T14:55:11;19.40;99.90
56240;DHT22;42154;51.992;5.896;2023-07-31T14:57:37;19.40;99.90
56240;DHT22;42154;51.992;5.896;2023-07-31T15:00:03;19.40;99.90
56240;DHT22;42154;51.992;5.896;2023-07-31T15:02:34;19.40;99.90
56240;DHT22;42154;51.992;5.896;2023-07-31T15:05:00;19.30;99.90
56240;DHT22;42154;51.992;5.896;2023-07-31T15:07:26;19.30;99.90
56240;DHT22;42154;51.992;5.896;2023-07-31T15:09:51;19.30;99.90
56240;DHT22;42154;51.992;5.896;2023-07-31T15:12:17;19.30;99.90
56240;DHT22;42154;51.992;5.896;2023-07-31T15:14:43;19.30;99.90
56240;DHT22;42154;51.992;5.896;2023-07-31T15:17:09;19.40;99.90
56240;DHT22;42154;51.992;5.896;2023-07-31T15:19:34;19.40;99.90
56240;DHT22;42154;51.992;5.896;2023-07-31T15:22:03;19.40;99.90
56240;DHT22;42154;51.992;5.896;2023-07-31T15:24:29;19.40;99.90
56240;DHT22;42154;51.992;5.896;2023-07-31T15:26:54;19.40;99.90
56240;DHT22;42154;51.992;5.896;2023-07-31T15:29:21;19.40;99.90
56240;DHT22;42154;51.992;5.896;2023-07-31T15:31:47;19.40;99.90
56240;DHT22;42154;51.992;5.896;2023-07-31T15:34:14;19.40;99.90
56240;DHT22;42154;51.992;5.896;2023-07-31T15:36:40;19.40;99.90
56240;DHT22;42154;51.992;5.896;2023-07-31T15:39:06;19.40;99.90